Airfield :
LOGIN :

Register | Disclaimer

   EN    FR    IT 

 










Legend :    VFR   Marginal VFR   IFR   Intensive IFR   Very Intensive IFR
Visi :
Ceiling :
>= 8 km
>= 3000ft
5 to 8 km
1000 to 3000 ft
1500m to 5 km
500 to 1000 ft
800 to 1500m
200 to 500 ft
< 800m
< 200 ft
Symbols :   Thunderstorms  Fog  Heavy snow  Heavy precipitations  Wind > 20 kt
SIGMETs :     Misc.  Thunderstorms  Icing  Turbulence  Mountain Waves  Volcanic Ashes






- Airport Elevation : 256 ft
- IATA code : CFR


LFRK - Caen

CURRENT METAR :
  • 192130Z AUTO VRB03KT CAVOK 18/16 Q1015 NOSIG

EXPIRED METARs :
  • 192100Z AUTO VRB03KT CAVOK 18/16 Q1015 NOSIG
  • 192030Z AUTO 01005KT CAVOK 19/16 Q1015 NOSIG
  • 192000Z AUTO 01005KT 330V040 CAVOK 19/16 Q1015 NOSIG
  • 191930Z AUTO 36007KT 320V020 CAVOK 20/16 Q1015 NOSIG
  • 191900Z AUTO 36007KT CAVOK 22/16 Q1015 NOSIG
  • 191830Z AUTO 34009KT 310V010 CAVOK 24/17 Q1015 NOSIG
  • 191800Z AUTO 33009KT 300V360 CAVOK 26/17 Q1015 NOSIG
  • 191730Z AUTO 29012KT CAVOK 28/15 Q1015 BECMG 36010KT
  • 191700Z AUTO 29012KT CAVOK 28/14 Q1015 TEMPO SHRA SCT050CB BECMG 36010KT

TAF TAF LFRK
Valid from the 19 at 15:00 until the 20 at 00:00 UTC


191400Z 1915/1924 36010KT CAVOK
PROB40
TEMPO 1915/1918 SHRA SCT050CB
BECMG 1921/1923 VRB03KT
Met : +33 2 31 26 68 11



MET'MAP, your aeronautical weather chart ! - Copyright ORBIFLY December 2007 - Disclaimer

ORBIFLY MET'MAP TEAM :

Programming & Development : Alexandra Zaïnal
Original concept : Baudouin d'Aumeries
Technical & hardware support : Manuel Goepfert
Assistance : Marc-Olivier Méhu




SOURCES & CREDITS :

   NOAA